Aérodrome :
LOGIN :

S'inscrire | Disclaimer

   EN    FR    IT 

 










Légende :    VFR   VFR Marginal   IFR   IFR Intensif   IFR Très Intensif
Visi : 
Plafond : 
>= 8 km
>= 3000ft
5 à 8 km
1000 à 3000 ft
1500m à 5 km
500 à 1000 ft
800 à 1500m
200 à 500 ft
< 800m
< 200 ft
Symboles :   Orages  Brouillard  Fortes neiges  Fortes précipitations  Vent > 20 kt
SIGMETs :   Divers  Orages  Givrage  Turbulence  Onde Orograph.  Cendres Volcan.






- Altitude de l'aérodrome : 327 ft
- Code IATA : BHX


EGBB - Birmingham

DERNIER METAR :
  • 251150Z 18004KT 7000 SCT008 BKN016 05/04 Q1018

METARs EXPIRÉS :
  • 251120Z 17005KT 8000 SCT009 BKN018 05/04 Q1018
  • 251050Z 18004KT 9000 BKN021 05/04 Q1018
  • 251020Z VRB03KT 9000 BKN019 05/04 Q1018
  • 250950Z VRB03KT 9999 BKN018 05/04 Q1018
  • 250920Z 21004KT 170V250 7000 FEW007 BKN015 05/04 Q1018

TAF TAF EGBB
Valide du 25 à 12h jusqu'au 26 à 12h UTC


251103Z 2512/2612 20005KT 9999 BKN018
BECMG 2512/2515 6000 BKN010
TEMPO 2513/2604 3000 -DZ BR BKN006
PROB40
TEMPO 2515/2602 1200 DZ BR BKN004
PROB30
TEMPO 2604/2612 9999 SCT010 BKN016
TEMPO 2610/2612 18015G25KT RA
ATIS : +44 121 780 0910



MET'MAP, la Météo Aéronautique d'un coup d'oeil ! - Copyright ORBIFLY Décembre 2007 - Disclaimer

ORBIFLY MET'MAP TEAM :

Programmation & Développement : Alexandra Zaïnal
Sur une idée originale de : Baudouin d'Aumeries
Assistance à la programmation : Marc-Olivier Méhu
Soutien technique & logistique : Manuel Goepfert

Contact : metmap@orbifly.com




SOURCES & CREDITS :

   NOAA